Time;durP1;ratioP1;P1;durP2;ratioP2;P2;SDS_P1;SDS_P2;PMS_P1;PMS_P2;Temp;Humidity;BMP_temperature;BMP_pressure;BME280_temperature;BME280_humidity;BME280_pressure;Samples;Min_cycle;Max_cycle;Signal;HPM_P1;HPM_P2
2023/03/13 00:01:38;;;;;;;9.82;5.00;;;;;;;;;;5035765;28;20075;-66
2023/03/13 00:04:04;;;;;;;14.77;5.82;;;;;;;;;;5024515;28;20037;-66
2023/03/13 00:06:33;;;;;;;15.73;5.90;;;;;;;;;;5022961;28;20041;-67
2023/03/13 00:09:00;;;;;;;17.63;6.25;;;;;;;;;;5024142;28;20165;-66
2023/03/13 00:11:26;;;;;;;13.98;6.05;;;;;;;;;;5024817;28;20076;-67
2023/03/13 00:13:57;;;;;;;13.98;5.03;;;;;;;;;;5029424;28;20037;-66
2023/03/13 00:16:23;;;;;;;13.75;5.75;;;;;;;;;;5026515;28;20041;-65
2023/03/13 00:18:51;;;;;;;14.88;5.85;;;;;;;;;;5028484;28;20051;-66
2023/03/13 00:21:19;;;;;;;9.10;4.03;;;;;;;;;;5028534;28;20048;-66
2023/03/13 00:23:46;;;;;;;10.90;5.00;;;;;;;;;;5027083;28;20052;-65
2023/03/13 00:26:13;;;;;;;13.30;5.88;;;;;;;;;;5028178;28;20041;-66
2023/03/13 00:28:41;;;;;;;13.02;5.28;;;;;;;;;;5026422;28;20465;-66
2023/03/13 00:31:09;;;;;;;19.55;7.38;;;;;;;;;;5027460;28;20037;-67
2023/03/13 00:33:37;;;;;;;10.13;4.20;;;;;;;;;;5039157;28;20649;-66
2023/03/13 00:36:05;;;;;;;12.65;4.82;;;;;;;;;;5026950;28;20045;-67
2023/03/13 00:38:33;;;;;;;11.77;5.40;;;;;;;;;;5029211;28;20029;-66
2023/03/13 00:41:04;;;;;;;9.70;4.78;;;;;;;;;;5029775;28;20589;-67
2023/03/13 00:43:31;;;;;;;12.30;4.60;;;;;;;;;;5029205;28;20080;-67
2023/03/13 00:45:58;;;;;;;20.73;5.40;;;;;;;;;;5025974;28;20045;-65
2023/03/13 00:48:25;;;;;;;9.40;4.65;;;;;;;;;;5027389;28;20041;-65
2023/03/13 00:50:52;;;;;;;12.93;5.85;;;;;;;;;;5027092;28;20569;-65
2023/03/13 00:53:18;;;;;;;10.50;5.63;;;;;;;;;;5039395;28;20053;-66
2023/03/13 00:56:05;;;;;;;10.68;5.10;;;;;;;;;;5026177;28;20033;-65
2023/03/13 00:58:51;;;;;;;13.57;5.05;;;;;;;;;;4997545;28;20243;-66
2023/03/13 01:01:18;;;;;;;7.90;4.35;;;;;;;;;;4999573;28;20041;-66
2023/03/13 01:03:46;;;;;;;13.13;5.25;;;;;;;;;;4999198;28;20038;-66
2023/03/13 01:06:14;;;;;;;15.13;4.68;;;;;;;;;;4999082;28;20487;-65
2023/03/13 01:08:44;;;;;;;14.20;5.32;;;;;;;;;;4998848;28;20048;-66
2023/03/13 01:11:15;;;;;;;10.30;4.57;;;;;;;;;;5017281;28;20131;-66
2023/03/13 01:13:42;;;;;;;9.60;4.72;;;;;;;;;;5001466;28;20045;-66
2023/03/13 01:16:13;;;;;;;11.38;4.68;;;;;;;;;;5018524;28;20103;-66
2023/03/13 01:18:42;;;;;;;11.18;4.70;;;;;;;;;;5017559;28;20049;-65
2023/03/13 01:21:09;;;;;;;15.82;5.20;;;;;;;;;;5018341;28;20141;-64
2023/03/13 01:23:36;;;;;;;11.35;3.92;;;;;;;;;;5032763;28;21939;-66
2023/03/13 01:26:04;;;;;;;9.73;4.93;;;;;;;;;;5017833;28;20316;-68
2023/03/13 01:28:30;;;;;;;9.85;4.55;;;;;;;;;;5020311;28;20045;-65
2023/03/13 01:30:57;;;;;;;10.68;5.88;;;;;;;;;;5041943;28;20143;-64
2023/03/13 01:33:24;;;;;;;8.48;4.50;;;;;;;;;;5030670;28;20041;-65
2023/03/13 01:35:50;;;;;;;14.15;6.55;;;;;;;;;;5025164;28;20045;-64
2023/03/13 01:38:17;;;;;;;14.60;5.90;;;;;;;;;;5028633;28;20060;-65
2023/03/13 01:40:48;;;;;;;14.27;4.93;;;;;;;;;;5025777;28;20067;-65
2023/03/13 01:43:31;;;;;;;15.57;5.22;;;;;;;;;;5022325;28;20492;-65
2023/03/13 01:46:13;;;;;;;13.05;5.40;;;;;;;;;;5025663;28;20042;-64
2023/03/13 01:48:58;;;;;;;12.07;5.22;;;;;;;;;;5026965;28;20037;-64
2023/03/13 01:51:33;;;;;;;16.80;7.35;;;;;;;;;;5025899;28;20184;-64
2023/03/13 01:54:03;;;;;;;15.00;6.80;;;;;;;;;;5025619;28;20044;-65
2023/03/13 01:56:36;;;;;;;22.85;8.45;;;;;;;;;;5043978;28;20045;-65
2023/03/13 01:59:04;;;;;;;41.47;9.48;;;;;;;;;;5027212;28;20665;-64
2023/03/13 02:01:31;;;;;;;17.02;7.18;;;;;;;;;;5025738;28;20041;-64
2023/03/13 02:03:58;;;;;;;12.07;6.15;;;;;;;;;;5026618;28;20425;-64
2023/03/13 02:06:26;;;;;;;16.98;8.15;;;;;;;;;;5025596;28;20399;-65
2023/03/13 02:08:59;;;;;;;15.80;6.50;;;;;;;;;;5027341;28;20041;-65
2023/03/13 02:11:25;;;;;;;;;;;;;;;;;;5027216;28;20053;-65
2023/03/13 02:13:53;;;;;;;6.80;4.68;;;;;;;;;;5028240;28;19917;-63
2023/03/13 02:16:20;;;;;;;13.93;6.60;;;;;;;;;;5024107;28;20052;-65
2023/03/13 02:18:47;;;;;;;14.55;5.93;;;;;;;;;;5029454;28;20135;-65
2023/03/13 02:21:19;;;;;;;11.43;6.13;;;;;;;;;;5027363;28;20132;-65
2023/03/13 02:24:05;;;;;;;14.68;5.30;;;;;;;;;;5023769;28;20051;-65
2023/03/13 02:26:32;;;;;;;9.27;5.15;;;;;;;;;;5023640;28;20030;-65
2023/03/13 02:28:59;;;;;;;14.05;5.07;;;;;;;;;;5027240;28;20078;-66
2023/03/13 02:31:26;;;;;;;12.13;4.82;;;;;;;;;;5024861;28;20051;-65
2023/03/13 02:33:53;;;;;;;9.77;4.50;;;;;;;;;;5026387;28;20037;-64
2023/03/13 02:36:19;;;;;;;10.82;4.68;;;;;;;;;;5025932;28;20557;-66
2023/03/13 02:38:55;;;;;;;24.10;5.47;;;;;;;;;;5025236;28;20119;-66
2023/03/13 02:41:23;;;;;;;11.48;5.18;;;;;;;;;;5027571;28;20135;-66
2023/03/13 02:43:49;;;;;;;15.48;6.35;;;;;;;;;;5027045;28;20075;-67
2023/03/13 02:46:17;;;;;;;11.07;5.35;;;;;;;;;;5024060;28;20133;-66
2023/03/13 02:48:45;;;;;;;7.95;4.55;;;;;;;;;;5025316;28;20033;-65
2023/03/13 02:51:16;;;;;;;13.27;6.07;;;;;;;;;;5025202;28;20601;-67
2023/03/13 02:53:43;;;;;;;14.00;5.35;;;;;;;;;;5025078;28;20841;-68
2023/03/13 02:56:11;;;;;;;16.52;4.68;;;;;;;;;;5024422;28;20041;-65
2023/03/13 02:58:39;;;;;;;20.95;5.47;;;;;;;;;;5048208;28;20497;-65
2023/03/13 03:01:06;;;;;;;16.17;7.32;;;;;;;;;;5025300;28;20329;-65
2023/03/13 03:03:34;;;;;;;12.80;6.40;;;;;;;;;;5025033;28;20041;-63
2023/03/13 03:06:00;;;;;;;9.57;5.45;;;;;;;;;;5024848;28;20037;-64
2023/03/13 03:08:27;;;;;;;12.23;5.57;;;;;;;;;;5025997;28;20374;-64
2023/03/13 03:10:53;;;;;;;21.75;5.32;;;;;;;;;;5023170;28;20076;-64
2023/03/13 03:13:20;;;;;;;14.25;5.70;;;;;;;;;;5026090;28;20088;-61
2023/03/13 03:15:47;;;;;;;10.38;4.38;;;;;;;;;;5025946;28;20092;-64
2023/03/13 03:18:13;;;;;;;18.65;5.15;;;;;;;;;;5022763;28;20037;-63
2023/03/13 03:20:40;;;;;;;11.15;5.30;;;;;;;;;;5023828;28;20072;-62
2023/03/13 03:23:26;;;;;;;9.30;4.28;;;;;;;;;;5036819;28;20088;-62
2023/03/13 03:25:53;;;;;;;13.07;5.65;;;;;;;;;;5037763;28;20073;-62
2023/03/13 03:28:19;;;;;;;13.63;6.70;;;;;;;;;;5037309;28;20135;-62
2023/03/13 03:30:46;;;;;;;13.85;5.63;;;;;;;;;;5038828;28;20048;-62
2023/03/13 03:33:13;;;;;;;9.65;5.30;;;;;;;;;;5036545;28;20572;-60
2023/03/13 03:35:39;;;;;;;10.85;4.93;;;;;;;;;;5035447;28;20036;-62
2023/03/13 03:38:06;;;;;;;9.45;5.22;;;;;;;;;;5037839;28;20415;-63
2023/03/13 03:40:33;;;;;;;9.48;4.93;;;;;;;;;;5034826;28;20347;-64
2023/03/13 03:43:00;;;;;;;17.13;6.00;;;;;;;;;;5037259;28;20033;-64
2023/03/13 03:45:26;;;;;;;19.30;8.25;;;;;;;;;;5038408;28;20505;-64
2023/03/13 03:47:58;;;;;;;16.73;8.95;;;;;;;;;;5035983;28;21643;-63
2023/03/13 03:50:28;;;;;;;9.02;4.90;;;;;;;;;;5035306;28;20110;-65
2023/03/13 03:52:58;;;;;;;12.23;6.18;;;;;;;;;;5040597;28;20040;-65
2023/03/13 03:55:25;;;;;;;10.85;5.47;;;;;;;;;;5031698;28;20041;-65
2023/03/13 03:57:52;;;;;;;23.00;5.38;;;;;;;;;;5057402;28;20053;-66
2023/03/13 04:00:18;;;;;;;9.57;5.35;;;;;;;;;;5037391;28;20045;-66
2023/03/13 04:02:45;;;;;;;11.20;6.03;;;;;;;;;;5038289;28;20038;-66
2023/03/13 04:05:12;;;;;;;11.90;5.75;;;;;;;;;;5034156;28;20070;-66
2023/03/13 04:07:39;;;;;;;19.15;6.60;;;;;;;;;;5029017;28;20061;-66
2023/03/13 04:10:06;;;;;;;11.68;5.55;;;;;;;;;;5024082;28;20053;-67
2023/03/13 04:12:33;;;;;;;14.63;5.82;;;;;;;;;;5022390;28;20389;-66
2023/03/13 04:14:59;;;;;;;12.00;6.00;;;;;;;;;;5022953;28;20045;-64
2023/03/13 04:17:26;;;;;;;15.43;6.20;;;;;;;;;;5023256;28;20033;-65
2023/03/13 04:19:53;;;;;;;14.90;5.03;;;;;;;;;;5025011;28;20033;-64
2023/03/13 04:22:19;;;;;;;13.27;6.65;;;;;;;;;;5025211;28;20045;-65
2023/03/13 04:24:46;;;;;;;19.75;7.55;;;;;;;;;;5021969;28;20746;-65
2023/03/13 04:27:12;;;;;;;9.50;5.28;;;;;;;;;;5024099;28;20047;-65
2023/03/13 04:29:39;;;;;;;29.73;5.15;;;;;;;;;;5022899;28;20493;-65
2023/03/13 04:32:06;;;;;;;12.75;5.15;;;;;;;;;;5024569;28;20041;-65
2023/03/13 04:34:32;;;;;;;8.70;5.75;;;;;;;;;;5024764;28;20033;-66
2023/03/13 04:36:59;;;;;;;12.88;6.38;;;;;;;;;;5022218;28;20083;-66
2023/03/13 04:39:26;;;;;;;11.02;4.82;;;;;;;;;;5024722;28;20037;-66
2023/03/13 04:41:53;;;;;;;20.95;5.35;;;;;;;;;;5023805;28;20049;-65
2023/03/13 04:44:19;;;;;;;7.05;4.90;;;;;;;;;;5025012;28;20110;-64
2023/03/13 04:46:46;;;;;;;14.00;7.03;;;;;;;;;;5022084;28;20040;-64
2023/03/13 04:49:13;;;;;;;11.07;5.50;;;;;;;;;;5023187;28;20955;-65
2023/03/13 04:51:40;;;;;;;12.02;6.45;;;;;;;;;;5024651;28;20049;-63
2023/03/13 04:54:07;;;;;;;10.05;5.63;;;;;;;;;;5024436;28;20044;-64
2023/03/13 04:56:34;;;;;;;12.18;5.72;;;;;;;;;;5022927;28;20084;-63
2023/03/13 04:59:00;;;;;;;10.70;5.82;;;;;;;;;;5028291;28;21731;-64
2023/03/13 05:01:27;;;;;;;23.80;6.32;;;;;;;;;;5027471;28;20038;-63
2023/03/13 05:03:53;;;;;;;16.58;7.43;;;;;;;;;;5027873;28;20103;-63
2023/03/13 05:06:20;;;;;;;13.50;4.85;;;;;;;;;;5026533;28;20123;-66
2023/03/13 05:08:47;;;;;;;13.57;6.53;;;;;;;;;;5026523;28;20041;-64
2023/03/13 05:11:13;;;;;;;7.20;5.03;;;;;;;;;;5027840;28;20241;-65
2023/03/13 05:13:40;;;;;;;20.25;5.60;;;;;;;;;;5028863;28;20080;-65
2023/03/13 05:16:07;;;;;;;11.05;5.70;;;;;;;;;;5026649;28;20144;-64
2023/03/13 05:18:34;;;;;;;12.90;6.95;;;;;;;;;;5026023;28;20045;-63
2023/03/13 05:21:02;;;;;;;16.55;6.72;;;;;;;;;;5028472;28;20064;-64
2023/03/13 05:23:28;;;;;;;14.07;6.45;;;;;;;;;;5026608;28;20095;-65
2023/03/13 05:25:55;;;;;;;11.55;6.60;;;;;;;;;;5026793;28;20499;-64
2023/03/13 05:28:21;;;;;;;13.25;6.38;;;;;;;;;;5026019;28;20129;-64
2023/03/13 05:30:48;;;;;;;9.63;6.03;;;;;;;;;;5027335;28;20453;-64
2023/03/13 05:33:15;;;;;;;13.63;6.72;;;;;;;;;;5026449;28;20422;-63
2023/03/13 05:35:42;;;;;;;15.43;6.65;;;;;;;;;;5025226;28;20068;-65
2023/03/13 05:38:09;;;;;;;15.27;7.65;;;;;;;;;;5027560;28;20376;-65
2023/03/13 05:40:35;;;;;;;12.02;6.20;;;;;;;;;;5024890;28;20045;-65
2023/03/13 05:43:02;;;;;;;16.88;7.72;;;;;;;;;;5027719;28;20136;-63
2023/03/13 05:45:28;;;;;;;14.30;6.32;;;;;;;;;;5025843;28;20049;-64
2023/03/13 05:47:57;;;;;;;16.23;8.00;;;;;;;;;;5026370;28;20045;-64
2023/03/13 05:50:24;;;;;;;12.10;6.68;;;;;;;;;;5025533;28;20049;-64
2023/03/13 05:52:51;;;;;;;14.35;6.78;;;;;;;;;;5026117;28;20052;-63
2023/03/13 05:55:18;;;;;;;12.75;6.03;;;;;;;;;;5026058;28;20052;-64
2023/03/13 05:57:45;;;;;;;16.02;7.00;;;;;;;;;;5026130;28;20034;-63
2023/03/13 06:00:13;;;;;;;15.20;7.57;;;;;;;;;;5027148;28;20045;-64
2023/03/13 06:02:39;;;;;;;15.38;7.20;;;;;;;;;;5026265;28;21031;-64
2023/03/13 06:05:06;;;;;;;14.85;7.95;;;;;;;;;;5025986;28;20048;-65
2023/03/13 06:07:33;;;;;;;23.85;7.28;;;;;;;;;;5037121;28;20318;-65
2023/03/13 06:09:59;;;;;;;12.00;6.55;;;;;;;;;;5025045;28;20052;-64
2023/03/13 06:12:26;;;;;;;15.43;7.55;;;;;;;;;;5025030;28;20057;-65
2023/03/13 06:14:53;;;;;;;13.25;6.72;;;;;;;;;;5026165;28;20041;-65
2023/03/13 06:17:19;;;;;;;12.02;6.72;;;;;;;;;;5026147;28;20048;-63
2023/03/13 06:19:46;;;;;;;22.73;9.00;;;;;;;;;;5025132;28;20072;-66
2023/03/13 06:22:13;;;;;;;16.27;7.07;;;;;;;;;;5026600;28;21316;-65
2023/03/13 06:24:40;;;;;;;12.95;7.20;;;;;;;;;;5025251;28;20464;-65
2023/03/13 06:27:07;;;;;;;18.27;6.90;;;;;;;;;;5025167;28;20037;-65
2023/03/13 06:29:34;;;;;;;20.52;7.65;;;;;;;;;;5023757;28;20378;-65
2023/03/13 06:32:00;;;;;;;15.45;7.43;;;;;;;;;;5026730;28;20106;-65
2023/03/13 06:34:27;;;;;;;14.10;7.95;;;;;;;;;;5024122;28;20047;-65
2023/03/13 06:36:54;;;;;;;17.98;7.75;;;;;;;;;;5024445;28;20726;-65
2023/03/13 06:39:20;;;;;;;13.48;7.55;;;;;;;;;;5025043;28;20124;-66
2023/03/13 06:41:47;;;;;;;19.88;7.47;;;;;;;;;;5024432;28;20041;-66
2023/03/13 06:44:13;;;;;;;21.70;6.78;;;;;;;;;;5026163;28;20037;-65
2023/03/13 06:46:40;;;;;;;17.60;7.93;;;;;;;;;;5025126;28;20175;-66
2023/03/13 06:49:07;;;;;;;13.15;6.40;;;;;;;;;;5023740;28;20041;-65
2023/03/13 06:51:33;;;;;;;13.75;6.75;;;;;;;;;;5024828;28;20045;-65
2023/03/13 06:54:02;;;;;;;15.35;8.07;;;;;;;;;;5026211;28;20038;-64
2023/03/13 06:56:28;;;;;;;22.15;7.57;;;;;;;;;;5024509;28;20513;-64
2023/03/13 06:58:55;;;;;;;21.15;7.32;;;;;;;;;;5024967;28;20435;-64
2023/03/13 07:01:22;;;;;;;15.63;8.38;;;;;;;;;;5024730;28;20807;-66
2023/03/13 07:03:48;;;;;;;16.30;7.20;;;;;;;;;;5024212;28;20064;-65
2023/03/13 07:06:15;;;;;;;14.40;7.63;;;;;;;;;;5024186;28;20880;-65
2023/03/13 07:08:43;;;;;;;15.93;7.07;;;;;;;;;;5026181;28;20034;-64
2023/03/13 07:11:10;;;;;;;20.05;7.50;;;;;;;;;;5025853;28;20080;-64
2023/03/13 07:13:37;;;;;;;20.23;8.07;;;;;;;;;;5024459;28;20045;-63
2023/03/13 07:16:05;;;;;;;13.13;5.97;;;;;;;;;;5024023;28;20041;-64
2023/03/13 07:18:33;;;;;;;22.23;8.23;;;;;;;;;;5024630;28;20709;-64
2023/03/13 07:21:00;;;;;;;12.43;6.63;;;;;;;;;;5024631;28;20044;-64
2023/03/13 07:23:27;;;;;;;14.68;7.68;;;;;;;;;;5034443;28;20037;-63
2023/03/13 07:25:55;;;;;;;17.40;8.32;;;;;;;;;;5024348;28;20128;-64
2023/03/13 07:28:22;;;;;;;16.23;8.15;;;;;;;;;;5023755;28;20106;-65
2023/03/13 07:30:48;;;;;;;8.68;5.63;;;;;;;;;;5024904;28;20053;-64
2023/03/13 07:33:15;;;;;;;25.85;8.10;;;;;;;;;;5036772;28;20041;-65
2023/03/13 07:35:48;;;;;;;13.75;6.88;;;;;;;;;;5023430;28;20107;-64
2023/03/13 07:38:14;;;;;;;12.45;6.95;;;;;;;;;;5024676;28;20056;-65
2023/03/13 07:40:47;;;;;;;17.42;7.53;;;;;;;;;;5024014;28;20057;-65
2023/03/13 07:43:14;;;;;;;8.02;4.68;;;;;;;;;;5023177;28;20047;-65
2023/03/13 07:45:49;;;;;;;15.40;6.90;;;;;;;;;;5022341;28;20619;-65
2023/03/13 07:48:16;;;;;;;11.55;6.53;;;;;;;;;;5045765;28;20558;-65
2023/03/13 07:50:42;;;;;;;18.65;6.53;;;;;;;;;;5023496;28;20055;-64
2023/03/13 07:53:09;;;;;;;8.18;4.78;;;;;;;;;;5020046;28;20114;-63
2023/03/13 07:55:36;;;;;;;10.60;5.70;;;;;;;;;;5025341;28;20434;-64
2023/03/13 07:58:02;;;;;;;8.57;5.55;;;;;;;;;;5025545;28;20144;-63
2023/03/13 08:00:29;;;;;;;12.23;6.80;;;;;;;;;;5022326;28;20040;-63
2023/03/13 08:02:55;;;;;;;12.38;6.35;;;;;;;;;;5025358;28;20049;-63
2023/03/13 08:05:22;;;;;;;8.90;5.30;;;;;;;;;;5024213;28;20052;-65
2023/03/13 08:07:49;;;;;;;34.15;7.97;;;;;;;;;;5026149;28;20410;-63
2023/03/13 08:10:15;;;;;;;22.10;5.40;;;;;;;;;;5024298;28;20048;-65
2023/03/13 08:12:42;;;;;;;15.30;5.82;;;;;;;;;;5039912;28;20494;-64
2023/03/13 08:15:09;;;;;;;13.50;6.72;;;;;;;;;;5034010;28;20082;-63
2023/03/13 08:17:35;;;;;;;12.70;8.68;;;;;;;;;;5025203;28;20064;-64
2023/03/13 08:20:02;;;;;;;10.20;6.38;;;;;;;;;;5027624;28;20065;-65
2023/03/13 08:22:29;;;;;;;19.05;7.82;;;;;;;;;;5023736;28;20076;-64
2023/03/13 08:24:55;;;;;;;13.88;6.78;;;;;;;;;;5022145;28;20045;-65
2023/03/13 08:27:22;;;;;;;11.38;6.53;;;;;;;;;;5023575;28;20038;-65
2023/03/13 08:29:49;;;;;;;9.00;6.00;;;;;;;;;;5024361;28;20045;-63
2023/03/13 08:32:17;;;;;;;15.90;8.20;;;;;;;;;;5047407;28;20036;-66
2023/03/13 08:34:43;;;;;;;12.90;6.35;;;;;;;;;;5027767;28;20056;-64
2023/03/13 08:37:10;;;;;;;14.27;6.32;;;;;;;;;;5028107;28;20041;-63
2023/03/13 08:39:36;;;;;;;13.80;7.55;;;;;;;;;;5027418;28;20120;-64
2023/03/13 08:42:03;;;;;;;17.85;8.18;;;;;;;;;;5028322;28;20041;-64
2023/03/13 08:44:30;;;;;;;21.15;9.02;;;;;;;;;;5049443;28;20044;-65
2023/03/13 08:46:58;;;;;;;13.40;7.75;;;;;;;;;;5028282;28;20052;-63
2023/03/13 08:49:25;;;;;;;13.55;6.18;;;;;;;;;;5028648;28;20064;-64
2023/03/13 08:51:51;;;;;;;20.00;7.10;;;;;;;;;;5028327;28;20418;-64
2023/03/13 08:54:18;;;;;;;21.65;9.90;;;;;;;;;;5025529;28;20103;-67
2023/03/13 08:56:45;;;;;;;14.32;7.60;;;;;;;;;;5024581;28;20453;-65
2023/03/13 08:59:14;;;;;;;28.40;8.48;;;;;;;;;;5026760;28;20033;-64
2023/03/13 09:01:41;;;;;;;8.65;5.80;;;;;;;;;;5026882;28;20037;-64
2023/03/13 09:04:08;;;;;;;15.85;8.05;;;;;;;;;;5035426;28;20040;-65
2023/03/13 09:06:35;;;;;;;22.70;9.57;;;;;;;;;;5029362;28;20390;-66
2023/03/13 09:09:02;;;;;;;13.95;6.97;;;;;;;;;;5027751;28;20509;-65
2023/03/13 09:11:49;;;;;;;20.42;7.47;;;;;;;;;;5027569;28;20102;-65
2023/03/13 09:14:16;;;;;;;8.40;5.82;;;;;;;;;;5044001;28;20028;-65
2023/03/13 09:16:45;;;;;;;12.95;6.75;;;;;;;;;;5049131;28;20044;-65
2023/03/13 09:19:12;;;;;;;18.05;6.65;;;;;;;;;;5043286;28;20163;-65
2023/03/13 09:21:38;;;;;;;27.65;7.18;;;;;;;;;;5049816;28;20035;-65
2023/03/13 09:24:05;;;;;;;12.32;7.47;;;;;;;;;;5059875;28;20044;-64
2023/03/13 09:26:32;;;;;;;8.30;6.15;;;;;;;;;;5057811;28;20037;-65
2023/03/13 09:28:58;;;;;;;12.45;4.82;;;;;;;;;;5058491;28;20036;-65
2023/03/13 09:31:26;;;;;;;8.48;5.53;;;;;;;;;;5057993;28;20051;-65
2023/03/13 09:33:53;;;;;;;12.35;6.80;;;;;;;;;;5058775;28;20484;-65
2023/03/13 09:36:20;;;;;;;10.77;6.65;;;;;;;;;;5056442;28;21843;-64
2023/03/13 09:38:47;;;;;;;15.25;6.13;;;;;;;;;;5041884;28;20493;-64
2023/03/13 09:41:17;;;;;;;10.77;6.45;;;;;;;;;;5060110;28;20043;-66
2023/03/13 09:43:59;;;;;;;13.20;6.30;;;;;;;;;;5057441;28;20032;-65
2023/03/13 09:46:31;;;;;;;10.20;4.97;;;;;;;;;;5057941;28;20071;-65
2023/03/13 09:49:02;;;;;;;10.45;5.55;;;;;;;;;;5057940;28;20767;-65
2023/03/13 09:51:37;;;;;;;7.88;4.07;;;;;;;;;;5046001;28;20389;-65
2023/03/13 09:54:08;;;;;;;19.65;6.60;;;;;;;;;;5025612;28;20084;-65
2023/03/13 09:56:44;;;;;;;16.40;6.35;;;;;;;;;;5024494;28;20449;-65
2023/03/13 09:59:45;;;;;;;12.48;7.28;;;;;;;;;;5025855;28;20473;-69
2023/03/13 10:02:32;;;;;;;13.23;7.40;;;;;;;;;;5023081;28;20037;-64
2023/03/13 10:05:05;;;;;;;11.32;6.00;;;;;;;;;;5024170;28;20069;-65
2023/03/13 10:07:31;;;;;;;13.10;8.05;;;;;;;;;;5038188;28;20037;-64
2023/03/13 10:10:00;;;;;;;20.90;7.18;;;;;;;;;;5025931;28;20087;-65
2023/03/13 10:12:31;;;;;;;9.70;6.07;;;;;;;;;;5019114;28;20041;-65
2023/03/13 10:15:08;;;;;;;10.27;5.97;;;;;;;;;;5021844;28;20048;-66
2023/03/13 10:17:41;;;;;;;13.23;6.05;;;;;;;;;;5024242;28;20144;-66
2023/03/13 10:20:28;;;;;;;16.88;7.00;;;;;;;;;;5022967;28;20251;-64
2023/03/13 10:23:00;;;;;;;13.35;7.57;;;;;;;;;;5012383;28;20029;-65
2023/03/13 10:25:30;;;;;;;6.70;4.22;;;;;;;;;;5021846;28;21080;-66
2023/03/13 10:27:57;;;;;;;10.20;7.03;;;;;;;;;;5000427;28;20029;-65
2023/03/13 10:30:28;;;;;;;7.18;5.15;;;;;;;;;;5021598;28;20057;-66
2023/03/13 10:33:01;;;;;;;12.90;7.32;;;;;;;;;;5016692;28;20037;-65
2023/03/13 10:35:45;;;;;;;17.00;8.27;;;;;;;;;;5021606;28;20032;-66
2023/03/13 10:38:13;;;;;;;12.70;6.85;;;;;;;;;;5018365;28;20530;-65
2023/03/13 10:40:41;;;;;;;12.60;7.97;;;;;;;;;;5020572;28;20077;-64
2023/03/13 10:43:17;;;;;;;13.25;6.60;;;;;;;;;;5016615;28;20049;-64
2023/03/13 10:45:44;;;;;;;13.82;5.07;;;;;;;;;;5009145;28;20074;-63
2023/03/13 10:48:14;;;;;;;15.32;7.43;;;;;;;;;;5003805;28;20540;-64
2023/03/13 10:50:43;;;;;;;11.05;5.40;;;;;;;;;;5003180;28;20050;-63
2023/03/13 10:53:30;;;;;;;10.57;6.38;;;;;;;;;;5006404;28;20495;-63
2023/03/13 10:55:59;;;;;;;11.93;6.25;;;;;;;;;;5012471;28;20115;-63
2023/03/13 10:58:37;;;;;;;11.82;7.30;;;;;;;;;;5035499;28;20045;-63
2023/03/13 11:01:32;;;;;;;8.75;5.80;;;;;;;;;;5026420;28;20049;-64
2023/03/13 11:03:59;;;;;;;15.40;7.65;;;;;;;;;;5020359;28;20120;-66
2023/03/13 11:06:26;;;;;;;16.38;8.43;;;;;;;;;;5023787;28;20043;-65
2023/03/13 11:09:01;;;;;;;13.52;7.63;;;;;;;;;;5025579;28;20128;-66
2023/03/13 11:11:29;;;;;;;13.23;7.45;;;;;;;;;;5030558;28;20084;-67
2023/03/13 11:14:10;;;;;;;16.00;7.45;;;;;;;;;;5056637;28;20048;-66
2023/03/13 11:16:39;;;;;;;8.30;5.78;;;;;;;;;;5025957;28;20476;-66
2023/03/13 11:19:28;;;;;;;10.80;6.70;;;;;;;;;;5022341;28;20037;-66
2023/03/13 11:22:27;;;;;;;13.73;6.88;;;;;;;;;;5011305;28;20513;-65
2023/03/13 11:25:02;;;;;;;11.15;7.13;;;;;;;;;;4999837;28;20123;-64
2023/03/13 11:27:41;;;;;;;9.68;6.65;;;;;;;;;;5035340;28;20040;-66
2023/03/13 11:30:26;;;;;;;10.68;5.93;;;;;;;;;;5024680;28;20131;-65
2023/03/13 11:32:53;;;;;;;11.98;6.95;;;;;;;;;;5016344;28;20042;-65
2023/03/13 11:35:40;;;;;;;16.92;9.43;;;;;;;;;;5034896;28;20033;-64
2023/03/13 11:38:08;;;;;;;13.82;7.00;;;;;;;;;;5021230;28;20919;-66
2023/03/13 11:41:06;;;;;;;11.50;7.10;;;;;;;;;;5010276;28;20167;-65
2023/03/13 11:43:39;;;;;;;17.13;8.98;;;;;;;;;;5025980;28;20081;-66
2023/03/13 11:46:21;;;;;;;15.82;6.60;;;;;;;;;;5017583;28;20180;-65
2023/03/13 11:48:55;;;;;;;28.58;12.38;;;;;;;;;;5018166;28;20067;-65
2023/03/13 11:51:22;;;;;;;15.85;7.25;;;;;;;;;;5013275;28;20057;-65
2023/03/13 11:54:03;;;;;;;16.67;10.05;;;;;;;;;;5017598;28;20038;-65
2023/03/13 11:56:42;;;;;;;22.58;11.57;;;;;;;;;;5017449;28;21899;-64
2023/03/13 11:59:27;;;;;;;15.50;8.15;;;;;;;;;;5015344;28;20054;-66
2023/03/13 12:02:00;;;;;;;21.95;10.45;;;;;;;;;;5014992;28;20045;-63
2023/03/13 12:04:43;;;;;;;66.57;8.88;;;;;;;;;;5017631;28;21833;-63
2023/03/13 12:07:19;;;;;;;14.20;9.05;;;;;;;;;;5018435;28;20044;-64
2023/03/13 12:09:49;;;;;;;12.57;7.72;;;;;;;;;;5019954;28;20710;-65
2023/03/13 12:12:19;;;;;;;14.38;10.15;;;;;;;;;;5024853;28;20060;-66
2023/03/13 12:14:52;;;;;;;16.85;8.00;;;;;;;;;;5038878;28;20078;-64
2023/03/13 12:17:18;;;;;;;;;;;;;;;;;;5027680;28;20045;-66
2023/03/13 12:19:55;;;;;;;29.05;12.35;;;;;;;;;;5050055;28;19921;-66
2023/03/13 12:22:28;;;;;;;15.27;9.02;;;;;;;;;;5025645;28;20672;-66
2023/03/13 12:24:58;;;;;;;10.13;6.53;;;;;;;;;;5026774;28;21709;-64
2023/03/13 12:27:31;;;;;;;20.17;10.93;;;;;;;;;;5028060;28;20041;-65
2023/03/13 12:30:16;;;;;;;24.10;12.45;;;;;;;;;;5027751;28;20035;-66
2023/03/13 12:32:47;;;;;;;22.50;8.25;;;;;;;;;;5027369;28;20040;-67
2023/03/13 12:35:31;;;;;;;15.80;9.02;;;;;;;;;;5028830;28;20030;-66
2023/03/13 12:38:04;;;;;;;14.23;8.98;;;;;;;;;;5028969;28;20056;-66
2023/03/13 12:40:37;;;;;;;10.75;8.43;;;;;;;;;;5022646;28;20609;-68
2023/03/13 12:43:24;;;;;;;13.98;9.00;;;;;;;;;;5029583;28;20051;-66
2023/03/13 12:45:57;;;;;;;18.90;9.95;;;;;;;;;;5025510;28;20049;-64
2023/03/13 12:48:39;;;;;;;13.90;10.05;;;;;;;;;;5029422;28;20056;-65
2023/03/13 12:51:25;;;;;;;21.98;8.77;;;;;;;;;;5024050;28;20088;-67
2023/03/13 12:54:12;;;;;;;18.85;9.68;;;;;;;;;;5024093;28;20051;-65
2023/03/13 12:56:44;;;;;;;14.88;9.75;;;;;;;;;;5024970;28;20045;-65
2023/03/13 12:59:35;;;;;;;14.63;9.95;;;;;;;;;;4998015;28;20140;-63
2023/03/13 13:02:02;;;;;;;10.73;7.65;;;;;;;;;;4999136;28;20572;-63
2023/03/13 13:04:33;;;;;;;25.10;11.23;;;;;;;;;;4999427;28;20306;-65
2023/03/13 13:07:20;;;;;;;22.98;11.35;;;;;;;;;;5000146;28;20038;-64
2023/03/13 13:10:19;;;;;;;28.25;15.02;;;;;;;;;;4978123;28;20054;-64
2023/03/13 13:12:46;;;;;;;13.60;8.63;;;;;;;;;;4957998;28;20117;-64
2023/03/13 13:15:23;;;;;;;12.38;7.85;;;;;;;;;;4979179;28;20042;-65
2023/03/13 13:18:01;;;;;;;35.90;14.80;;;;;;;;;;4979134;28;20050;-65
2023/03/13 13:20:30;;;;;;;16.77;10.65;;;;;;;;;;4979467;28;20137;-64
2023/03/13 13:22:57;;;;;;;20.33;10.80;;;;;;;;;;4993048;28;20572;-64
2023/03/13 13:25:24;;;;;;;22.45;11.77;;;;;;;;;;4984573;28;20213;-64
2023/03/13 13:27:51;;;;;;;23.25;10.55;;;;;;;;;;5000298;28;20951;-65
2023/03/13 13:30:18;;;;;;;23.38;14.15;;;;;;;;;;4999532;28;20046;-65
2023/03/13 13:32:52;;;;;;;21.77;11.43;;;;;;;;;;4997040;28;20459;-65
2023/03/13 13:35:29;;;;;;;13.55;9.88;;;;;;;;;;4999497;28;20074;-67
2023/03/13 13:38:14;;;;;;;19.92;12.10;;;;;;;;;;5016653;28;20045;-66
2023/03/13 13:40:40;;;;;;;28.20;14.38;;;;;;;;;;5023792;28;20041;-65
2023/03/13 13:43:19;;;;;;;16.73;7.65;;;;;;;;;;5024958;28;20059;-65
2023/03/13 13:45:58;;;;;;;25.38;10.57;;;;;;;;;;5026547;28;20115;-65
2023/03/13 13:48:31;;;;;;;15.60;11.32;;;;;;;;;;5024500;28;20128;-64
2023/03/13 13:51:10;;;;;;;19.35;11.40;;;;;;;;;;5026188;28;20049;-67
2023/03/13 13:53:45;;;;;;;17.88;9.45;;;;;;;;;;5024142;28;20041;-64
2023/03/13 13:56:27;;;;;;;20.50;10.98;;;;;;;;;;5030531;28;20044;-64
2023/03/13 13:59:06;;;;;;;16.83;10.70;;;;;;;;;;5037629;28;20045;-64
2023/03/13 14:01:33;;;;;;;11.70;8.52;;;;;;;;;;5025790;28;20071;-64
2023/03/13 14:04:11;;;;;;;18.83;8.95;;;;;;;;;;5023974;28;20040;-63
2023/03/13 14:06:38;;;;;;;14.18;8.63;;;;;;;;;;5023472;28;20047;-65
2023/03/13 14:09:31;;;;;;;12.48;8.10;;;;;;;;;;5024156;28;20033;-63
2023/03/13 14:11:59;;;;;;;13.60;8.95;;;;;;;;;;5004737;28;20085;-65
2023/03/13 14:14:25;;;;;;;12.35;8.88;;;;;;;;;;5025546;28;20052;-64
2023/03/13 14:16:55;;;;;;;17.58;9.40;;;;;;;;;;5024958;28;20048;-64
2023/03/13 14:19:24;;;;;;;21.70;9.75;;;;;;;;;;5024210;28;20037;-64
2023/03/13 14:21:50;;;;;;;25.63;10.77;;;;;;;;;;5026729;28;20037;-64
2023/03/13 14:24:17;;;;;;;24.80;11.75;;;;;;;;;;5027033;28;20573;-64
2023/03/13 14:26:45;;;;;;;23.15;10.07;;;;;;;;;;5025103;28;20047;-65
2023/03/13 14:29:24;;;;;;;20.40;9.30;;;;;;;;;;5026223;28;20040;-64
2023/03/13 14:31:53;;;;;;;18.13;8.75;;;;;;;;;;5026809;28;20907;-65
2023/03/13 14:34:20;;;;;;;17.50;9.85;;;;;;;;;;5025429;28;20044;-65
2023/03/13 14:36:48;;;;;;;20.10;9.98;;;;;;;;;;5024847;28;20144;-65
2023/03/13 14:39:21;;;;;;;29.90;10.27;;;;;;;;;;5023793;28;20144;-66
2023/03/13 14:41:47;;;;;;;;;;;;;;;;;;5023799;28;20049;-65
2023/03/13 14:44:21;;;;;;;14.23;8.90;;;;;;;;;;5025733;28;19940;-65
2023/03/13 14:46:48;;;;;;;14.77;8.80;;;;;;;;;;5024857;28;20044;-64
2023/03/13 14:49:17;;;;;;;16.95;11.02;;;;;;;;;;5024911;28;20079;-66